createdAt,value
2023-03-17T11:55:15.024Z,8.36
2023-03-17T11:57:57.686Z,8.34
2023-03-17T12:00:45.901Z,7.32
2023-03-17T12:03:23.234Z,8.06
2023-03-17T12:05:56.128Z,7.88
2023-03-17T12:08:46.142Z,5.79
2023-03-17T12:11:20.449Z,7.59
2023-03-17T12:14:01.893Z,8.90
2023-03-17T12:16:40.184Z,9.26
2023-03-17T12:19:18.259Z,8.21
2023-03-17T12:22:03.866Z,7.29
2023-03-17T12:24:47.288Z,6.12
2023-03-17T12:27:31.736Z,7.02
2023-03-17T12:30:05.438Z,7.28
2023-03-17T12:32:44.164Z,7.88
2023-03-17T12:35:29.737Z,9.60
2023-03-17T12:38:05.581Z,10.83
2023-03-17T12:41:11.754Z,8.57
2023-03-17T12:44:16.500Z,7.48
2023-03-17T12:46:55.454Z,7.77
2023-03-17T12:49:31.779Z,7.74
2023-03-17T12:52:02.692Z,7.89
2023-03-17T12:54:38.104Z,8.38
2023-03-17T12:57:22.043Z,7.74
2023-03-17T13:00:00.802Z,7.45
2023-03-17T13:02:28.421Z,7.84
2023-03-17T13:05:00.793Z,6.62
2023-03-17T13:07:34.334Z,7.77
2023-03-17T13:10:01.984Z,7.24
2023-03-17T13:12:44.780Z,7.83
2023-03-17T13:15:34.103Z,7.23
2023-03-17T13:18:16.894Z,6.56
2023-03-17T13:21:04.886Z,7.65
2023-03-17T13:23:44.513Z,8.76
2023-03-17T13:26:17.828Z,8.63
2023-03-17T13:28:49.250Z,7.90
2023-03-17T13:31:31.913Z,7.37
2023-03-17T13:34:17.956Z,8.88
2023-03-17T13:36:58.011Z,8.62
2023-03-17T13:39:45.039Z,8.12
2023-03-17T13:42:18.723Z,7.69
2023-03-17T13:45:06.793Z,7.92
2023-03-17T13:47:38.386Z,8.47
2023-03-17T13:50:32.763Z,9.11
2023-03-17T13:53:10.472Z,7.78
2023-03-17T13:55:41.562Z,7.25
2023-03-17T13:58:11.347Z,7.75
2023-03-17T14:00:45.280Z,7.11
2023-03-17T14:03:30.002Z,7.97
2023-03-17T14:06:02.536Z,8.79
2023-03-17T14:08:33.842Z,8.89
2023-03-17T14:11:06.774Z,8.84
2023-03-17T14:13:56.106Z,9.16
2023-03-17T14:16:28.036Z,8.76
2023-03-17T14:19:00.855Z,9.20
2023-03-17T14:21:33.584Z,9.41
2023-03-17T14:24:06.589Z,10.14
2023-03-17T14:26:34.158Z,10.86
2023-03-17T14:29:04.829Z,10.22
2023-03-17T14:31:32.555Z,10.60
2023-03-17T14:34:01.285Z,10.16
2023-03-17T14:36:33.630Z,11.17
2023-03-17T14:39:01.160Z,11.55
2023-03-17T14:41:29.372Z,12.12
2023-03-17T14:43:59.363Z,11.19
2023-03-17T14:46:38.713Z,10.95
2023-03-17T14:49:22.519Z,12.01
2023-03-17T14:51:53.577Z,11.95
2023-03-17T14:54:26.616Z,10.71
2023-03-17T14:57:02.316Z,11.99
2023-03-17T14:59:41.073Z,12.31
2023-03-17T15:02:24.628Z,11.99
2023-03-17T15:04:56.771Z,11.15
2023-03-17T15:07:29.653Z,12.19
2023-03-17T15:10:06.882Z,11.72
2023-03-17T15:12:34.695Z,11.49
2023-03-17T15:15:07.795Z,12.08
2023-03-17T15:17:37.048Z,13.21
2023-03-17T15:20:11.915Z,13.00
2023-03-17T15:22:42.533Z,13.36
2023-03-17T15:25:27.795Z,12.16
2023-03-17T15:27:56.490Z,12.26
2023-03-17T15:30:29.513Z,13.15
2023-03-17T15:33:04.157Z,13.05
2023-03-17T15:35:31.877Z,14.12
2023-03-17T15:37:59.506Z,13.72
2023-03-17T15:40:27.075Z,13.87
2023-03-17T15:42:54.864Z,13.69
2023-03-17T15:45:22.701Z,14.57
2023-03-17T15:47:50.552Z,14.94
2023-03-17T15:50:29.504Z,13.84
2023-03-17T15:52:57.907Z,13.89
2023-03-17T15:55:31.427Z,13.46
2023-03-17T15:57:59.468Z,13.74
2023-03-17T16:00:29.900Z,13.13
2023-03-17T16:03:02.398Z,13.95
2023-03-17T16:05:32.557Z,13.76
2023-03-17T16:08:00.649Z,13.96
2023-03-17T16:10:31.864Z,13.78
2023-03-17T16:12:59.709Z,13.89
2023-03-17T16:15:32.993Z,14.20
2023-03-17T16:18:04.361Z,13.86
2023-03-17T16:20:38.632Z,14.39
2023-03-17T16:23:18.096Z,14.31
2023-03-17T16:25:46.614Z,14.73
2023-03-17T16:28:18.600Z,14.36
2023-03-17T16:30:48.463Z,14.58
2023-03-17T16:33:21.950Z,14.17
2023-03-17T16:35:52.346Z,13.83
2023-03-17T16:38:25.650Z,14.32
2023-03-17T16:40:55.409Z,14.67
2023-03-17T16:43:29.836Z,14.81
2023-03-17T16:45:58.272Z,13.87
2023-03-17T16:48:27.040Z,14.49
2023-03-17T16:50:56.600Z,14.78
2023-03-17T16:53:25.399Z,14.33
2023-03-17T16:55:55.135Z,13.97
2023-03-17T16:58:25.054Z,13.91
2023-03-17T17:01:02.607Z,14.76
2023-03-17T17:03:31.403Z,14.41
2023-03-17T17:05:59.236Z,14.54
2023-03-17T17:08:27.113Z,14.22
2023-03-17T17:10:54.899Z,14.61
2023-03-17T17:13:23.173Z,14.45
2023-03-17T17:15:51.026Z,14.76
2023-03-17T17:18:27.319Z,14.88
2023-03-17T17:20:56.728Z,14.90
2023-03-17T17:23:26.661Z,15.09
2023-03-17T17:25:54.717Z,16.08
2023-03-17T17:28:24.594Z,17.04
2023-03-17T17:30:53.103Z,17.70
2023-03-17T17:33:22.017Z,16.53
2023-03-17T17:35:51.011Z,15.93
2023-03-17T17:38:28.343Z,16.07
2023-03-17T17:40:58.320Z,16.71
2023-03-17T17:43:26.299Z,16.09
2023-03-17T17:45:54.984Z,16.97
2023-03-17T17:48:25.652Z,16.59
2023-03-17T17:50:55.704Z,17.36
2023-03-17T17:53:24.035Z,16.88
2023-03-17T17:55:52.372Z,16.99
2023-03-17T17:58:25.321Z,17.52
2023-03-17T18:00:55.391Z,17.88
2023-03-17T18:03:25.350Z,17.43
2023-03-17T18:05:54.778Z,18.13
2023-03-17T18:08:24.133Z,18.20
2023-03-17T18:10:52.984Z,17.76
2023-03-17T18:13:22.562Z,18.13
2023-03-17T18:15:50.309Z,17.81
2023-03-17T18:18:18.235Z,18.07
2023-03-17T18:20:46.559Z,18.72
2023-03-17T18:23:16.442Z,17.96
2023-03-17T18:25:49.770Z,17.95
2023-03-17T18:28:18.814Z,18.95
2023-03-17T18:30:47.336Z,19.82
2023-03-17T18:33:18.450Z,19.46
2023-03-17T18:35:48.920Z,18.98
2023-03-17T18:38:17.154Z,19.92
2023-03-17T18:40:45.422Z,20.31
2023-03-17T18:43:14.598Z,19.57
2023-03-17T18:45:42.408Z,19.57
2023-03-17T18:48:10.714Z,19.54
2023-03-17T18:50:38.691Z,19.45
2023-03-17T18:53:06.892Z,19.51
2023-03-17T18:55:34.822Z,19.93
2023-03-17T18:58:02.670Z,20.20
2023-03-17T19:00:32.702Z,20.32
2023-03-17T19:03:00.995Z,20.13
2023-03-17T19:05:30.407Z,20.17
2023-03-17T19:08:05.392Z,19.83
2023-03-17T19:10:34.422Z,20.63
2023-03-17T19:13:06.203Z,20.47
2023-03-17T19:15:35.829Z,19.69
2023-03-17T19:18:05.686Z,19.81
2023-03-17T19:20:41.922Z,19.98
2023-03-17T19:23:15.567Z,19.92
2023-03-17T19:25:43.660Z,20.61
2023-03-17T19:28:11.747Z,20.34
2023-03-17T19:30:40.796Z,20.45
2023-03-17T19:33:09.260Z,22.07
2023-03-17T19:35:38.017Z,21.31
2023-03-17T19:38:05.646Z,20.69
2023-03-17T19:40:40.589Z,20.62
2023-03-17T19:43:08.787Z,21.48
2023-03-17T19:45:37.500Z,20.51
2023-03-17T19:48:05.590Z,20.66
2023-03-17T19:50:34.625Z,19.98
2023-03-17T19:53:04.372Z,21.31
2023-03-17T19:55:41.417Z,20.58
2023-03-17T19:58:12.460Z,20.52
2023-03-17T20:00:43.100Z,20.38
2023-03-17T20:03:12.660Z,21.24
2023-03-17T20:05:41.065Z,20.99
2023-03-17T20:08:09.524Z,21.14
2023-03-17T20:10:38.509Z,20.64
2023-03-17T20:13:06.628Z,20.99
2023-03-17T20:15:34.671Z,20.55
2023-03-17T20:18:02.684Z,21.03
2023-03-17T20:20:36.589Z,20.91
2023-03-17T20:23:06.728Z,21.18
2023-03-17T20:25:34.602Z,21.23
2023-03-17T20:28:02.804Z,21.83
2023-03-17T20:30:36.060Z,20.83
2023-03-17T20:33:06.712Z,21.65
2023-03-17T20:35:43.357Z,21.55
2023-03-17T20:38:13.508Z,22.54
2023-03-17T20:40:42.516Z,21.71
2023-03-17T20:43:11.689Z,21.48
2023-03-17T20:45:41.249Z,21.94
2023-03-17T20:48:14.331Z,23.21
2023-03-17T20:50:49.944Z,22.50
2023-03-17T20:53:17.866Z,22.32
2023-03-17T20:55:45.882Z,22.76
2023-03-17T20:58:13.760Z,21.17
2023-03-17T21:00:42.208Z,21.10
2023-03-17T21:03:10.830Z,21.69
2023-03-17T21:05:39.995Z,22.02
2023-03-17T21:08:08.735Z,22.09
2023-03-17T21:10:36.299Z,21.24
2023-03-17T21:13:04.960Z,21.00
2023-03-17T21:15:32.931Z,21.38
2023-03-17T21:18:00.812Z,20.98
2023-03-17T21:20:30.574Z,21.00
2023-03-17T21:23:03.295Z,21.14
2023-03-17T21:25:31.230Z,20.60
2023-03-17T21:28:00.331Z,21.34
2023-03-17T21:30:28.026Z,20.30
2023-03-17T21:32:55.602Z,20.29
2023-03-17T21:35:24.500Z,20.63
2023-03-17T21:37:53.560Z,20.41
2023-03-17T21:40:22.517Z,20.21
2023-03-17T21:42:50.552Z,20.19
2023-03-17T21:45:18.782Z,20.22
2023-03-17T21:47:46.471Z,20.14
2023-03-17T21:50:17.519Z,20.18
2023-03-17T21:52:45.558Z,20.74
2023-03-17T21:55:13.893Z,20.37
2023-03-17T21:57:41.654Z,21.50
2023-03-17T22:00:10.757Z,20.48
2023-03-17T22:02:41.863Z,21.16
2023-03-17T22:05:10.517Z,20.84
2023-03-17T22:07:41.024Z,21.03
2023-03-17T22:10:10.057Z,20.60
2023-03-17T22:12:38.562Z,21.70
2023-03-17T22:15:08.868Z,21.59
2023-03-17T22:17:36.758Z,22.25
2023-03-17T22:20:08.660Z,21.83
2023-03-17T22:22:36.690Z,21.80
2023-03-17T22:25:06.234Z,21.28
2023-03-17T22:27:34.088Z,21.40
2023-03-17T22:30:01.977Z,20.84
2023-03-17T22:32:30.203Z,21.39
2023-03-17T22:34:57.804Z,21.13
2023-03-17T22:37:25.689Z,21.15
2023-03-17T22:39:53.305Z,21.15
2023-03-17T22:42:21.087Z,20.92
2023-03-17T22:44:48.749Z,21.66
2023-03-17T22:47:16.476Z,22.12
2023-03-17T22:49:44.232Z,21.69
2023-03-17T22:52:11.873Z,21.50
2023-03-17T22:54:39.360Z,21.16
2023-03-17T22:57:07.138Z,20.94
2023-03-17T22:59:36.329Z,21.51
2023-03-17T23:02:03.939Z,21.63
2023-03-17T23:04:33.746Z,21.00
2023-03-17T23:07:01.655Z,20.64
2023-03-17T23:09:29.349Z,21.41
2023-03-17T23:11:57.253Z,21.35
2023-03-17T23:14:25.101Z,21.36
2023-03-17T23:16:52.860Z,21.71
2023-03-17T23:19:20.645Z,21.13
2023-03-17T23:21:48.486Z,21.09
2023-03-17T23:24:19.422Z,21.17
2023-03-17T23:26:47.165Z,21.49
2023-03-17T23:29:14.831Z,21.13
2023-03-17T23:31:44.843Z,21.24
2023-03-17T23:34:12.406Z,21.41
2023-03-17T23:36:40.662Z,22.85
2023-03-17T23:39:08.952Z,21.50
2023-03-17T23:41:37.262Z,21.10
2023-03-17T23:44:05.547Z,22.27
2023-03-17T23:46:34.709Z,21.92
2023-03-17T23:49:02.803Z,21.29
2023-03-17T23:51:30.900Z,21.71
2023-03-17T23:53:59.138Z,20.74
2023-03-17T23:56:27.442Z,20.96
2023-03-17T23:58:55.908Z,21.88
